Time;durP1;ratioP1;P1;durP2;ratioP2;P2;SDS_P1;SDS_P2;PMS_P1;PMS_P2;Temp;Humidity;BMP_temperature;BMP_pressure;BME280_temperature;BME280_humidity;BME280_pressure;Samples;Min_cycle;Max_cycle;Signal;HPM_P1;HPM_P2
2021/01/27 00:01:39;;;;;;;10.98;5.40;;;;;;;17.24;46.69;155653.91;1741369;82;21182;-75
2021/01/27 00:04:14;;;;;;;11.30;5.00;;;;;;;17.77;45.93;155795.09;1758474;81;21263;-75
2021/01/27 00:06:48;;;;;;;8.63;4.60;;;;;;;17.75;46.03;155789.81;1725572;82;21308;-74
2021/01/27 00:09:21;;;;;;;10.48;5.55;;;;;;;18.03;47.33;155862.38;1748192;81;21800;-74
2021/01/27 00:11:56;;;;;;;9.18;5.22;;;;;;;17.55;47.28;155737.06;1729799;81;21856;-75
2021/01/27 00:14:31;;;;;;;9.85;5.33;;;;;;;17.46;48.63;155713.33;1733202;79;21803;-76
2021/01/27 00:17:04;;;;;;;9.53;5.10;;;;;;;17.37;47.95;155688.25;1732587;81;21310;-74
2021/01/27 00:19:39;;;;;;;10.80;5.28;;;;;;;17.19;46.92;155640.70;1748798;80;21356;-75
2021/01/27 00:22:12;;;;;;;11.83;5.20;;;;;;;17.09;46.34;155614.34;1746972;81;21179;-69
2021/01/27 00:24:47;;;;;;;9.48;5.05;;;;;;;17.27;48.66;155663.14;1737744;81;21371;-74
2021/01/27 00:27:20;;;;;;;11.33;5.42;;;;;;;17.12;47.18;155620.97;1739270;81;21321;-74
2021/01/27 00:29:56;;;;;;;9.28;5.50;;;;;;;16.98;47.29;155585.34;1739542;81;21368;-74
2021/01/27 00:32:31;;;;;;;9.83;5.53;;;;;;;16.98;49.17;155585.34;1734314;82;21233;-74
2021/01/27 00:35:06;;;;;;;8.83;4.87;;;;;;;17.18;47.09;155636.77;1725431;82;21316;-75
2021/01/27 00:37:41;;;;;;;11.43;5.53;;;;;;;17.25;48.71;155657.84;1722418;82;21356;-74
2021/01/27 00:40:15;;;;;;;8.40;4.80;;;;;;;17.21;48.30;155645.98;1728127;82;21717;-74
2021/01/27 00:42:48;;;;;;;8.90;5.25;;;;;;;17.20;47.14;155644.69;1734717;82;21343;-74
2021/01/27 00:45:21;;;;;;;9.68;5.37;;;;;;;17.08;48.26;155611.70;1720425;82;21316;-74
2021/01/27 00:47:53;;;;;;;8.05;4.83;;;;;;;17.14;46.78;155627.55;1722995;82;21307;-72
2021/01/27 00:50:26;;;;;;;9.53;5.58;;;;;;;17.00;49.13;155589.33;1722772;82;21190;-74
2021/01/27 00:52:58;;;;;;;11.10;5.47;;;;;;;17.10;48.98;155616.98;1728789;82;21365;-74
2021/01/27 00:55:32;;;;;;;10.43;6.72;;;;;;;17.08;49.89;155610.41;1736771;82;21225;-74
2021/01/27 00:58:04;;;;;;;9.20;4.15;;;;;;;17.04;49.57;155599.84;1743267;82;21296;-75
2021/01/27 01:00:39;;;;;;;9.23;5.22;;;;;;;17.00;50.36;155589.33;1730415;81;21703;-75
2021/01/27 01:03:13;;;;;;;10.23;5.50;;;;;;;16.90;50.45;155564.27;1738342;82;21392;-75
2021/01/27 01:05:46;;;;;;;10.88;5.60;;;;;;;16.95;50.20;155577.47;1743267;81;21183;-75
2021/01/27 01:08:19;;;;;;;12.65;6.28;;;;;;;16.71;49.98;155514.19;1699350;82;21192;-74
2021/01/27 01:10:53;;;;;;;11.95;5.70;;;;;;;16.52;48.83;155462.78;1737735;82;21170;-75
2021/01/27 01:13:26;;;;;;;12.78;6.75;;;;;;;16.34;49.37;155415.33;1744580;82;21225;-75
2021/01/27 01:15:59;;;;;;;12.00;6.10;;;;;;;16.13;48.08;155359.95;1747031;81;21390;-74
2021/01/27 01:18:31;;;;;;;10.25;5.22;;;;;;;16.27;49.93;155396.84;1731682;82;21883;-75
2021/01/27 01:21:05;;;;;;;9.90;5.30;;;;;;;17.05;48.17;155603.83;1742829;81;21329;-75
2021/01/27 01:23:37;;;;;;;10.48;5.78;;;;;;;17.21;48.49;155647.34;1730048;82;21361;-69
2021/01/27 01:26:09;;;;;;;12.70;5.97;;;;;;;16.90;49.05;155564.27;1749200;81;21377;-70
2021/01/27 01:28:42;;;;;;;9.30;5.15;;;;;;;17.00;49.19;155589.33;1730881;82;21312;-70
2021/01/27 01:31:14;;;;;;;9.15;4.97;;;;;;;16.88;50.20;155557.69;1738578;81;21372;-70
2021/01/27 01:33:46;;;;;;;9.75;5.37;;;;;;;16.84;48.36;155547.12;1739947;81;21360;-69
2021/01/27 01:36:20;;;;;;;11.95;6.03;;;;;;;17.42;48.26;155702.77;1738621;81;21754;-69
2021/01/27 01:38:52;;;;;;;11.60;5.62;;;;;;;16.99;48.96;155586.69;1744108;82;21329;-69
2021/01/27 01:41:25;;;;;;;10.72;6.08;;;;;;;17.08;48.44;155611.70;1762827;81;21344;-69
2021/01/27 01:43:58;;;;;;;11.10;5.75;;;;;;;17.12;49.17;155622.27;1740313;81;21352;-69
2021/01/27 01:46:30;;;;;;;11.95;5.70;;;;;;;16.95;49.18;155577.47;1735763;82;21272;-68
2021/01/27 01:49:05;;;;;;;12.98;5.97;;;;;;;16.96;49.58;155580.06;1717467;82;21319;-69
2021/01/27 01:51:45;;;;;;;11.70;6.28;;;;;;;16.26;51.36;155394.20;1715567;82;21316;-70
2021/01/27 01:54:39;;;;;;;10.93;5.50;;;;;;;16.43;51.58;155439.08;1715654;82;21400;-68
2021/01/27 01:57:16;;;;;;;12.37;5.47;;;;;;;16.53;51.50;155466.72;1729287;82;21205;-70
2021/01/27 02:00:01;;;;;;;12.10;6.08;;;;;;;16.32;51.52;155410.05;1738201;82;21791;-68
2021/01/27 02:02:36;;;;;;;10.45;4.90;;;;;;;16.54;51.77;155469.36;1756920;81;21182;-69
2021/01/27 02:05:12;;;;;;;10.72;5.50;;;;;;;16.87;51.08;155556.34;1751968;81;21341;-68
2021/01/27 02:07:44;;;;;;;8.13;4.83;;;;;;;16.89;51.04;155560.33;1739151;82;21246;-68
2021/01/27 02:10:18;;;;;;;11.57;5.80;;;;;;;16.63;51.53;155493.08;1774925;81;21317;-69
2021/01/27 02:13:11;;;;;;;12.05;5.92;;;;;;;16.55;51.78;155472.00;1746061;81;21310;-69
2021/01/27 02:16:09;;;;;;;8.88;5.12;;;;;;;16.61;51.65;155487.78;1721944;82;21316;-70
2021/01/27 02:19:10;;;;;;;8.25;4.85;;;;;;;16.87;51.52;155556.34;1718496;82;21383;-68
2021/01/27 02:22:30;;;;;;;9.55;4.87;;;;;;;16.86;51.24;155552.41;1715508;82;21320;-69
2021/01/27 02:25:42;;;;;;;10.32;5.17;;;;;;;16.90;51.50;155564.27;1726318;81;21146;-69
2021/01/27 02:28:34;;;;;;;9.75;4.75;;;;;;;16.47;52.50;155450.94;1729223;81;21833;-68
2021/01/27 02:31:20;;;;;;;11.88;5.37;;;;;;;16.53;52.25;155466.72;1736682;82;21824;-69
2021/01/27 02:34:12;;;;;;;11.05;4.83;;;;;;;16.89;51.21;155560.33;1736453;81;21848;-69
2021/01/27 02:37:00;;;;;;;11.28;5.33;;;;;;;16.74;51.76;155522.06;1737949;81;21411;-69
2021/01/27 02:39:35;;;;;;;10.58;5.03;;;;;;;16.97;51.41;155581.41;1761890;81;21234;-69
2021/01/27 02:42:32;;;;;;;8.58;4.95;;;;;;;16.82;51.85;155543.19;1741723;81;21348;-68
2021/01/27 02:45:16;;;;;;;10.13;5.17;;;;;;;16.76;51.86;155527.34;1746776;81;21182;-69
2021/01/27 02:48:01;;;;;;;9.93;4.87;;;;;;;16.65;52.22;155497.06;1722781;82;21327;-69
2021/01/27 02:50:47;;;;;;;10.35;4.92;;;;;;;17.06;51.65;155605.13;1727128;82;21411;-69
2021/01/27 02:53:28;;;;;;;11.80;5.60;;;;;;;16.97;51.95;155582.70;1732187;81;21180;-69
2021/01/27 02:56:20;;;;;;;11.68;5.35;;;;;;;16.97;51.93;155581.41;1738983;82;21360;-69
2021/01/27 02:59:18;;;;;;;11.85;5.53;;;;;;;17.02;51.95;155595.91;1741217;82;21230;-69
2021/01/27 03:02:05;;;;;;;8.78;5.03;;;;;;;16.97;52.44;155581.41;1721814;82;21190;-68
2021/01/27 03:05:06;;;;;;;8.88;4.53;;;;;;;17.36;51.94;155686.91;1730344;82;21320;-69
2021/01/27 03:07:40;;;;;;;9.13;5.08;;;;;;;17.60;51.55;155748.92;1729688;82;21178;-68
2021/01/27 03:10:26;;;;;;;8.98;5.35;;;;;;;17.38;51.98;155690.91;1743550;82;21308;-65
2021/01/27 03:12:58;;;;;;;9.65;5.58;;;;;;;17.45;51.82;155710.69;1743494;82;21177;-68
2021/01/27 03:15:31;;;;;;;8.98;5.17;;;;;;;17.51;51.87;155726.48;1727781;82;21316;-69
2021/01/27 03:18:03;;;;;;;18.70;8.48;;;;;;;17.45;51.98;155710.69;1715634;82;21332;-69
2021/01/27 03:20:39;;;;;;;24.70;9.25;;;;;;;17.25;52.20;155656.56;1714648;82;21312;-69
2021/01/27 03:23:30;;;;;;;18.50;7.67;;;;;;;17.45;52.06;155710.69;1724088;82;21372;-69
2021/01/27 03:26:13;;;;;;;19.00;8.38;;;;;;;17.75;51.65;155788.52;1717184;82;21198;-68
2021/01/27 03:28:53;;;;;;;15.25;6.75;;;;;;;17.82;51.57;155808.31;1730246;81;21180;-68
2021/01/27 03:31:26;;;;;;;15.65;7.10;;;;;;;17.85;51.63;155816.19;1743856;81;21714;-67
2021/01/27 03:34:16;;;;;;;13.60;6.85;;;;;;;18.04;51.38;155866.36;1743804;82;21181;-69
2021/01/27 03:37:05;;;;;;;14.65;6.70;;;;;;;17.99;51.14;155851.84;1722707;82;21308;-69
2021/01/27 03:39:40;;;;;;;16.50;8.03;;;;;;;17.83;51.48;155810.91;1725317;82;21359;-69
2021/01/27 03:42:20;;;;;;;13.20;6.78;;;;;;;17.69;51.74;155772.66;1736314;81;21287;-69
2021/01/27 03:44:59;;;;;;;15.30;6.83;;;;;;;17.83;51.64;155810.91;1736247;82;21241;-69
2021/01/27 03:47:48;;;;;;;13.53;6.50;;;;;;;17.65;52.15;155762.14;1737719;81;21396;-69
2021/01/27 03:50:25;;;;;;;14.35;6.62;;;;;;;17.63;52.23;155756.84;1747002;81;21183;-68
2021/01/27 03:53:01;;;;;;;15.43;7.40;;;;;;;17.58;52.15;155744.98;1735895;81;21318;-70
2021/01/27 03:55:41;;;;;;;15.63;6.97;;;;;;;17.45;52.18;155710.69;1727615;81;21351;-69
2021/01/27 03:58:23;;;;;;;14.43;6.50;;;;;;;17.40;52.10;155697.47;1744575;82;21209;-70
2021/01/27 04:01:11;;;;;;;10.32;6.03;;;;;;;17.29;52.22;155668.47;1748017;81;21183;-70
2021/01/27 04:03:44;;;;;;;15.40;7.33;;;;;;;17.13;52.40;155623.61;1722865;82;21395;-69
2021/01/27 04:06:16;;;;;;;13.95;6.87;;;;;;;17.26;52.38;155659.20;1734707;81;21687;-69
2021/01/27 04:08:48;;;;;;;16.32;7.53;;;;;;;17.25;52.38;155657.84;1719863;82;21173;-70
2021/01/27 04:11:21;;;;;;;14.63;7.72;;;;;;;17.23;52.51;155651.28;1747829;81;22790;-70
2021/01/27 04:13:53;;;;;;;16.00;8.48;;;;;;;17.51;52.14;155725.19;1728743;82;21366;-70
2021/01/27 04:16:26;;;;;;;16.50;8.58;;;;;;;17.42;52.19;155701.41;1744248;80;21185;-70
2021/01/27 04:18:59;;;;;;;14.95;7.85;;;;;;;17.36;52.23;155686.91;1740102;81;21318;-72
2021/01/27 04:21:32;;;;;;;18.35;10.00;;;;;;;17.19;52.55;155642.06;1748853;81;21150;-70
2021/01/27 04:24:06;;;;;;;17.23;8.88;;;;;;;17.18;52.69;155639.41;1731868;82;21237;-70
2021/01/27 04:26:38;;;;;;;18.62;8.73;;;;;;;17.22;52.75;155648.62;1731898;81;21376;-70
2021/01/27 04:29:11;;;;;;;17.07;8.30;;;;;;;17.79;51.90;155800.38;1728613;81;21453;-76
2021/01/27 04:31:43;;;;;;;15.93;8.60;;;;;;;17.66;52.02;155766.08;1747261;81;21269;-74
2021/01/27 04:34:16;;;;;;;16.07;6.90;;;;;;;17.33;52.48;155679.03;1741491;81;21395;-74
2021/01/27 04:36:48;;;;;;;15.60;6.97;;;;;;;17.24;52.64;155655.22;1772711;81;21721;-80
2021/01/27 04:39:20;;;;;;;14.87;7.17;;;;;;;17.34;52.44;155681.69;1751732;81;21401;-79
2021/01/27 04:41:55;;;;;;;13.05;6.92;;;;;;;17.26;52.46;155660.50;1743934;81;21210;-85
2021/01/27 04:44:28;;;;;;;12.85;6.33;;;;;;;17.21;51.91;155647.34;1753932;81;21883;-79
2021/01/27 04:47:23;;;;;;;12.80;6.25;;;;;;;17.05;52.32;155602.48;1760975;80;21167;-87
2021/01/27 04:50:05;;;;;;;11.97;6.05;;;;;;;16.96;52.75;155578.77;1763406;80;21393;-73
2021/01/27 04:53:34;;;;;;;11.45;6.42;;;;;;;16.94;52.72;155574.83;1807717;78;21170;-77
2021/01/27 04:56:17;;;;;;;13.62;6.05;;;;;;;16.86;52.93;155553.70;1813751;79;21178;-84
2021/01/27 04:59:10;;;;;;;11.18;5.78;;;;;;;16.76;53.15;155526.06;1815547;79;21325;-78
2021/01/27 05:02:08;;;;;;;10.82;5.97;;;;;;;16.79;52.63;155533.92;1816887;79;21853;-72
2021/01/27 05:05:09;;;;;;;13.08;5.62;;;;;;;16.61;52.41;155487.78;1816487;79;21423;-77
2021/01/27 05:07:55;;;;;;;15.13;6.15;;;;;;;16.40;52.80;155431.16;1816400;79;21678;-77
2021/01/27 05:10:47;;;;;;;9.25;5.60;;;;;;;16.36;52.59;155420.59;1814747;79;21419;-73
2021/01/27 05:13:37;;;;;;;10.93;5.42;;;;;;;16.28;52.58;155399.48;1817257;79;21241;-77
2021/01/27 05:16:20;;;;;;;10.53;5.15;;;;;;;16.37;52.35;155424.59;1798193;79;21777;-71
2021/01/27 05:18:56;;;;;;;10.35;5.35;;;;;;;16.37;52.34;155423.25;1817591;79;21308;-81
2021/01/27 05:21:50;;;;;;;12.28;6.33;;;;;;;16.43;52.28;155440.38;1817630;79;21757;-79
2021/01/27 05:24:22;;;;;;;13.22;6.03;;;;;;;16.26;52.47;155394.20;1813865;77;21159;-75
2021/01/27 05:27:02;;;;;;;10.93;6.20;;;;;;;16.11;52.58;155353.38;1817615;77;21733;-77
2021/01/27 05:29:43;;;;;;;11.22;5.95;;;;;;;15.98;52.98;155320.41;1815093;79;21855;-78
2021/01/27 05:32:20;;;;;;;14.15;6.87;;;;;;;16.26;52.10;155395.50;1814861;79;21312;-76
2021/01/27 05:34:56;;;;;;;11.03;6.40;;;;;;;16.39;52.62;155429.81;1776458;80;21252;-77
2021/01/27 05:37:34;;;;;;;18.55;8.80;;;;;;;16.41;52.47;155433.81;1755685;81;21329;-79
2021/01/27 05:40:21;;;;;;;25.27;11.05;;;;;;;16.51;52.21;155460.16;1725512;80;21189;-74
2021/01/27 05:42:53;;;;;;;31.60;13.10;;;;;;;16.82;52.14;155541.84;1720568;81;21219;-75
2021/01/27 05:45:49;;;;;;;26.15;11.53;;;;;;;16.54;52.35;155468.06;1768308;81;21332;-82
2021/01/27 05:48:34;;;;;;;26.55;12.55;;;;;;;16.65;52.56;155498.34;1742133;80;21315;-80
2021/01/27 05:51:19;;;;;;;23.35;11.03;;;;;;;16.66;52.71;155501.00;1757643;81;21378;-75
2021/01/27 05:54:01;;;;;;;22.10;10.80;;;;;;;17.36;51.14;155685.62;1713347;82;21193;-81
2021/01/27 05:56:33;;;;;;;22.42;10.78;;;;;;;17.17;51.62;155635.47;1803336;79;21191;-78
2021/01/27 05:59:09;;;;;;;21.65;10.30;;;;;;;17.39;51.27;155694.84;1786510;79;21345;-78
2021/01/27 06:01:49;;;;;;;21.57;10.28;;;;;;;16.88;51.77;155557.69;1789989;79;21356;-78
2021/01/27 06:04:25;;;;;;;18.92;9.53;;;;;;;17.40;51.39;155697.47;1802117;79;21325;-72
2021/01/27 06:07:26;;;;;;;16.87;9.33;;;;;;;17.13;51.66;155623.61;1760414;81;21222;-82
2021/01/27 06:10:02;;;;;;;17.75;9.33;;;;;;;17.10;52.00;155615.69;1800920;79;21722;-78
2021/01/27 06:12:35;;;;;;;23.05;9.83;;;;;;;17.61;51.22;155751.56;1765444;79;21199;-81
2021/01/27 06:15:14;;;;;;;18.62;9.95;;;;;;;17.32;51.96;155676.39;1802717;79;21318;-84
2021/01/27 06:17:49;;;;;;;21.42;9.78;;;;;;;17.24;52.22;155655.22;1801997;79;21796;-77
2021/01/27 06:20:32;;;;;;;21.10;9.58;;;;;;;17.33;52.48;155679.03;1803388;79;21140;-75
2021/01/27 06:23:28;;;;;;;19.67;8.95;;;;;;;17.39;52.43;155694.84;1802602;79;21132;-76
2021/01/27 06:26:42;;;;;;;18.67;9.60;;;;;;;17.41;52.32;155700.13;1802386;79;21353;-77
2021/01/27 06:29:47;;;;;;;17.55;8.53;;;;;;;17.56;52.50;155739.70;1802205;79;21907;-74
2021/01/27 06:32:39;;;;;;;20.02;9.08;;;;;;;17.59;52.67;155747.58;1777090;78;21313;-75
2021/01/27 06:35:31;;;;;;;16.77;8.18;;;;;;;17.77;52.42;155793.75;1803290;78;21317;-77
2021/01/27 06:38:38;;;;;;;16.17;8.70;;;;;;;17.65;52.65;155763.44;1800188;79;21285;-78
2021/01/27 06:41:37;;;;;;;19.82;9.23;;;;;;;17.79;52.75;155800.38;1803353;78;21793;-76
2021/01/27 06:44:34;;;;;;;19.98;10.38;;;;;;;17.76;52.40;155791.16;1803442;78;21293;-76
2021/01/27 06:47:45;;;;;;;26.35;11.73;;;;;;;18.31;52.53;155938.98;1779605;79;21262;-78
2021/01/27 06:50:40;;;;;;;28.60;11.80;;;;;;;18.01;51.66;155857.08;1802715;79;21164;-77
2021/01/27 06:53:23;;;;;;;33.38;12.78;;;;;;;17.69;52.41;155774.00;1805613;79;21380;-77
2021/01/27 06:56:20;;;;;;;28.23;12.00;;;;;;;17.70;52.50;155776.66;1817922;77;21305;-79
2021/01/27 06:59:45;;;;;;;28.23;12.75;;;;;;;17.78;52.25;155796.39;1807931;77;21155;-77
2021/01/27 07:02:52;;;;;;;24.10;10.90;;;;;;;17.71;52.49;155779.23;1791686;79;21403;-74
2021/01/27 07:05:48;;;;;;;20.15;9.73;;;;;;;18.00;52.27;155854.44;1816682;79;21351;-77
2021/01/27 07:09:02;;;;;;;21.85;10.28;;;;;;;17.94;52.56;155838.63;1815500;79;21289;-65
2021/01/27 07:11:52;;;;;;;18.02;9.63;;;;;;;18.58;52.27;156010.23;1815758;77;21369;-66
2021/01/27 07:14:58;;;;;;;19.32;10.20;;;;;;;18.19;52.53;155907.25;1815311;77;21814;-68
2021/01/27 07:18:02;;;;;;;17.02;8.73;;;;;;;18.17;52.93;155901.97;1814517;78;21321;-64
2021/01/27 07:20:50;;;;;;;18.75;9.45;;;;;;;18.25;52.61;155921.83;1816910;79;21217;-65
2021/01/27 07:23:31;;;;;;;19.15;8.95;;;;;;;17.93;53.31;155835.98;1814831;77;21308;-65
2021/01/27 07:26:09;;;;;;;16.42;7.78;;;;;;;18.23;53.01;155916.53;1817532;77;21825;-63
2021/01/27 07:29:01;;;;;;;18.15;9.60;;;;;;;18.56;50.25;156005.00;1815707;77;21301;-65
2021/01/27 07:31:48;;;;;;;19.35;9.15;;;;;;;17.96;51.89;155845.22;1815722;77;21301;-68
2021/01/27 07:34:35;;;;;;;15.72;9.05;;;;;;;17.93;52.17;155837.33;1815807;79;21155;-67
2021/01/27 07:37:19;;;;;;;17.82;9.93;;;;;;;17.89;51.19;155826.75;1816682;79;21199;-66
2021/01/27 07:40:15;;;;;;;16.87;8.55;;;;;;;18.35;50.85;155948.22;1818304;79;21179;-69
2021/01/27 07:43:08;;;;;;;14.50;8.03;;;;;;;18.28;50.89;155929.75;1815774;79;21380;-65
2021/01/27 07:45:42;;;;;;;16.32;8.90;;;;;;;18.22;51.20;155915.25;1817250;79;21246;-68
2021/01/27 07:48:37;;;;;;;16.20;8.85;;;;;;;18.28;51.26;155929.75;1818289;77;21424;-69
2021/01/27 07:51:23;;;;;;;18.98;9.58;;;;;;;18.28;50.60;155929.75;1818013;79;21297;-67
2021/01/27 07:54:05;;;;;;;22.32;10.25;;;;;;;18.58;49.35;156010.23;1787809;78;21722;-66
2021/01/27 07:56:58;;;;;;;23.80;11.38;;;;;;;18.61;48.31;156016.88;1798961;78;21333;-70
2021/01/27 07:59:37;;;;;;;31.45;13.28;;;;;;;17.96;48.84;155843.91;1802085;78;21392;-70
2021/01/27 08:02:17;;;;;;;31.12;14.18;;;;;;;17.55;49.40;155737.06;1800884;79;21308;-69
2021/01/27 08:04:59;;;;;;;28.75;13.08;;;;;;;17.25;47.61;155656.56;1800363;79;21329;-67
2021/01/27 08:07:43;;;;;;;21.93;10.95;;;;;;;17.23;48.09;155652.62;1802551;79;21293;-71
2021/01/27 08:10:20;;;;;;;21.37;10.65;;;;;;;17.14;47.34;155626.20;1801905;79;21164;-70
2021/01/27 08:12:59;;;;;;;20.08;10.35;;;;;;;17.72;47.50;155781.87;1801938;78;21935;-70
2021/01/27 08:15:44;;;;;;;24.10;10.75;;;;;;;17.86;46.87;155818.83;1803708;79;22058;-68
2021/01/27 08:18:19;;;;;;;29.95;12.88;;;;;;;17.77;46.67;155793.75;1802830;79;21171;-71
2021/01/27 08:21:30;;;;;;;22.58;11.05;;;;;;;17.92;47.61;155833.34;1801133;79;21305;-67
2021/01/27 08:24:04;;;;;;;24.23;11.43;;;;;;;17.96;46.88;155843.91;1804496;78;21167;-68
2021/01/27 08:26:48;;;;;;;27.98;12.93;;;;;;;17.95;47.16;155841.28;1803458;78;21377;-67
2021/01/27 08:29:30;;;;;;;23.30;12.28;;;;;;;17.97;46.04;155846.56;1803110;79;21356;-69
2021/01/27 08:32:24;;;;;;;28.00;12.82;;;;;;;17.92;46.73;155834.69;1804397;79;21317;-67
2021/01/27 08:35:25;;;;;;;27.60;13.78;;;;;;;17.82;47.41;155808.31;1782640;78;22119;-65
2021/01/27 08:38:28;;;;;;;32.08;13.75;;;;;;;18.02;45.95;155861.08;1803440;78;21167;-68
2021/01/27 08:41:01;;;;;;;28.62;12.75;;;;;;;18.20;47.15;155908.55;1802463;78;21175;-68
2021/01/27 08:43:44;;;;;;;31.50;15.63;;;;;;;18.19;45.28;155905.91;1802963;79;21403;-63
2021/01/27 08:46:42;;;;;;;36.05;14.75;;;;;;;18.03;46.54;155862.38;1790247;79;21369;-65
2021/01/27 08:49:39;;;;;;;26.87;13.38;;;;;;;17.95;45.46;155842.56;1783796;79;21278;-65
2021/01/27 08:52:17;;;;;;;22.48;11.53;;;;;;;17.84;45.38;155813.55;1803453;79;21384;-65
2021/01/27 08:54:52;;;;;;;19.98;9.98;;;;;;;17.84;45.39;155812.25;1803291;78;21418;-62
2021/01/27 08:57:37;;;;;;;19.50;9.90;;;;;;;18.08;45.70;155876.87;1803067;78;21337;-64
2021/01/27 09:00:14;;;;;;;21.62;11.28;;;;;;;18.05;45.07;155867.66;1802871;78;21250;-64
2021/01/27 09:02:59;;;;;;;18.90;9.23;;;;;;;17.50;43.25;155723.84;1768571;78;21301;-65
2021/01/27 09:05:34;;;;;;;19.40;9.05;;;;;;;17.94;44.06;155839.92;1761935;79;21321;-63
2021/01/27 09:08:14;;;;;;;19.82;9.28;;;;;;;17.84;44.11;155813.55;1802945;79;21317;-64
2021/01/27 09:10:50;;;;;;;19.62;10.48;;;;;;;17.81;44.95;155805.67;1800949;79;21223;-62
2021/01/27 09:13:39;;;;;;;16.67;8.23;;;;;;;17.86;43.43;155818.83;1802336;79;21686;-64
2021/01/27 09:16:23;;;;;;;21.60;9.98;;;;;;;17.84;43.30;155813.55;1802599;79;21179;-64
2021/01/27 09:19:12;;;;;;;18.00;8.55;;;;;;;17.71;43.47;155779.23;1802790;79;21346;-65
2021/01/27 09:21:45;;;;;;;20.60;9.43;;;;;;;17.56;42.41;155739.70;1804439;79;21305;-66
2021/01/27 09:24:26;;;;;;;19.23;9.73;;;;;;;17.66;44.79;155766.08;1802644;78;21160;-65
2021/01/27 09:27:00;;;;;;;19.05;8.80;;;;;;;17.79;44.00;155800.38;1801875;79;21361;-65
2021/01/27 09:29:36;;;;;;;19.85;10.48;;;;;;;17.53;43.53;155731.78;1801833;79;21385;-64
2021/01/27 09:32:17;;;;;;;17.07;8.70;;;;;;;17.84;43.64;155812.25;1801887;78;21206;-66
2021/01/27 09:34:51;;;;;;;21.02;9.38;;;;;;;17.82;43.95;155808.31;1799138;79;21242;-70
2021/01/27 09:37:29;;;;;;;20.95;9.78;;;;;;;17.76;44.73;155792.45;1802038;79;22425;-65
2021/01/27 09:40:21;;;;;;;20.17;9.43;;;;;;;18.03;46.41;155862.38;1764766;80;21215;-64
2021/01/27 09:43:02;;;;;;;19.35;8.30;;;;;;;17.60;43.41;155748.92;1791577;79;21408;-64
2021/01/27 09:45:35;;;;;;;17.00;8.25;;;;;;;17.53;44.26;155731.78;1803642;78;21313;-64
2021/01/27 09:48:08;;;;;;;19.73;8.58;;;;;;;17.36;43.18;155686.91;1802258;79;21325;-65
2021/01/27 09:50:42;;;;;;;18.92;9.00;;;;;;;17.71;44.23;155779.23;1789607;79;21344;-66
2021/01/27 09:53:28;;;;;;;16.67;8.33;;;;;;;17.93;44.51;155837.33;1804058;79;21411;-65
2021/01/27 09:56:01;;;;;;;20.72;8.65;;;;;;;18.63;45.60;156023.45;1804849;78;21325;-65
2021/01/27 09:58:34;;;;;;;16.77;8.25;;;;;;;18.06;43.96;155871.59;1818505;77;21175;-65
2021/01/27 10:01:09;;;;;;;15.78;7.17;;;;;;;18.50;42.51;155987.83;1802043;79;21357;-65
2021/01/27 10:03:48;;;;;;;20.72;11.05;;;;;;;18.48;42.32;155983.83;1816281;79;22040;-66
2021/01/27 10:06:50;;;;;;;16.73;8.28;;;;;;;18.35;43.81;155949.52;1816974;79;21828;-65
2021/01/27 10:09:26;;;;;;;18.87;8.30;;;;;;;18.33;42.52;155944.28;1811654;79;21159;-65
2021/01/27 10:12:07;;;;;;;19.98;9.38;;;;;;;18.17;42.33;155901.97;1817604;79;21313;-65
2021/01/27 10:14:41;;;;;;;17.35;8.43;;;;;;;18.23;43.01;155916.53;1817335;79;21928;-65
2021/01/27 10:17:14;;;;;;;19.85;8.60;;;;;;;18.13;42.76;155891.39;1814489;79;21356;-66
2021/01/27 10:19:51;;;;;;;15.60;8.10;;;;;;;18.02;42.08;155861.08;1814374;77;21376;-62
2021/01/27 10:22:33;;;;;;;12.82;7.20;;;;;;;17.98;41.77;155850.50;1816709;79;21313;-66
2021/01/27 10:25:28;;;;;;;15.98;7.97;;;;;;;18.01;41.65;155858.42;1817164;79;21332;-64
2021/01/27 10:28:18;;;;;;;15.08;7.75;;;;;;;17.91;41.70;155832.05;1818528;77;21214;-64
2021/01/27 10:31:03;;;;;;;17.67;7.77;;;;;;;17.92;42.59;155834.69;1812028;78;21266;-65
2021/01/27 10:33:51;;;;;;;19.20;8.33;;;;;;;17.92;42.59;155834.69;1817122;77;21364;-63
2021/01/27 10:36:36;;;;;;;19.92;7.65;;;;;;;17.73;41.22;155784.53;1817249;79;21372;-67
2021/01/27 10:39:26;;;;;;;15.65;7.05;;;;;;;18.50;40.29;155987.83;1815926;79;21320;-66
2021/01/27 10:42:18;;;;;;;20.68;8.18;;;;;;;18.11;40.77;155886.11;1814782;79;21170;-64
2021/01/27 10:45:05;;;;;;;15.48;7.60;;;;;;;18.47;41.78;155979.89;1811038;77;21886;-66
2021/01/27 10:47:38;;;;;;;17.00;7.90;;;;;;;18.49;41.27;155986.48;1773145;77;21170;-64
2021/01/27 10:50:11;;;;;;;22.17;8.65;;;;;;;18.74;41.85;156052.50;1817040;79;21242;-65
2021/01/27 10:52:45;;;;;;;17.37;8.00;;;;;;;18.66;41.27;156030.03;1813706;78;21363;-65
2021/01/27 10:55:18;;;;;;;16.87;7.15;;;;;;;19.08;40.06;156143.64;1817593;77;21344;-65
2021/01/27 10:57:50;;;;;;;14.33;6.12;;;;;;;18.86;40.08;156082.89;1813062;79;21388;-63
2021/01/27 11:00:24;;;;;;;15.28;6.22;;;;;;;18.84;39.59;156078.89;1765356;79;21527;-63
2021/01/27 11:02:57;;;;;;;18.30;7.10;;;;;;;18.83;39.35;156074.95;1763448;81;21348;-64
2021/01/27 11:05:30;;;;;;;14.90;7.15;;;;;;;18.80;39.81;156068.38;1803178;78;21345;-60
2021/01/27 11:08:04;;;;;;;13.53;5.92;;;;;;;18.64;40.01;156024.75;1710708;82;21234;-65
2021/01/27 11:10:36;;;;;;;11.28;6.10;;;;;;;18.44;39.68;155973.31;1803191;78;21207;-64
2021/01/27 11:13:09;;;;;;;13.00;6.37;;;;;;;18.13;39.76;155890.09;1803956;78;21344;-65
2021/01/27 11:15:41;;;;;;;12.53;6.12;;;;;;;18.00;39.64;155855.78;1803192;79;21298;-65
2021/01/27 11:18:14;;;;;;;11.85;6.20;;;;;;;18.13;39.87;155890.09;1803566;79;21368;-63
2021/01/27 11:20:48;;;;;;;12.88;5.62;;;;;;;18.35;39.36;155948.22;1804818;79;21667;-65
2021/01/27 11:23:22;;;;;;;10.05;5.30;;;;;;;18.34;39.23;155945.56;1730510;81;21289;-64
2021/01/27 11:25:54;;;;;;;10.23;5.30;;;;;;;18.42;39.47;155966.67;1786723;79;21136;-65
2021/01/27 11:28:27;;;;;;;11.30;5.22;;;;;;;18.11;38.90;155886.11;1801110;79;21305;-64
2021/01/27 11:30:59;;;;;;;9.20;5.08;;;;;;;17.96;39.35;155845.22;1804868;79;21305;-64
2021/01/27 11:33:31;;;;;;;7.83;4.20;;;;;;;18.19;38.99;155907.25;1793775;79;21329;-64
2021/01/27 11:36:04;;;;;;;11.00;4.85;;;;;;;17.86;39.64;155817.53;1773665;79;21325;-62
2021/01/27 11:38:36;;;;;;;14.78;4.97;;;;;;;17.73;39.63;155783.22;1782247;79;21178;-64
2021/01/27 11:41:09;;;;;;;10.63;4.55;;;;;;;17.98;38.36;155850.50;1802215;79;21746;-63
2021/01/27 11:43:43;;;;;;;11.25;5.03;;;;;;;17.95;39.06;155841.28;1805556;79;21301;-64
2021/01/27 11:46:18;;;;;;;8.78;4.40;;;;;;;17.99;39.16;155853.14;1793117;79;21221;-63
2021/01/27 11:48:50;;;;;;;11.97;4.95;;;;;;;17.87;38.43;155820.19;1735081;82;21777;-63
2021/01/27 11:51:23;;;;;;;10.90;5.10;;;;;;;17.79;38.62;155800.38;1774403;81;21241;-63
2021/01/27 11:53:55;;;;;;;7.25;4.40;;;;;;;17.73;39.13;155783.22;1800647;79;21190;-62
2021/01/27 11:56:27;;;;;;;9.20;4.58;;;;;;;17.74;38.89;155787.16;1708414;82;21233;-64
2021/01/27 11:59:00;;;;;;;8.88;4.00;;;;;;;17.76;39.21;155792.45;1709265;83;21329;-64
2021/01/27 12:01:35;;;;;;;8.10;4.05;;;;;;;17.72;38.96;155781.87;1726895;82;21146;-64
2021/01/27 12:04:08;;;;;;;9.65;4.33;;;;;;;17.54;39.13;155734.41;1739915;82;21178;-64
2021/01/27 12:06:40;;;;;;;11.03;4.20;;;;;;;17.59;39.08;155747.58;1714061;82;21304;-64
2021/01/27 12:09:12;;;;;;;7.10;4.75;;;;;;;17.62;39.44;155755.50;1734857;82;21146;-64
2021/01/27 12:11:45;;;;;;;9.43;4.40;;;;;;;17.77;39.22;155795.09;1711509;82;21301;-64
2021/01/27 12:14:17;;;;;;;8.48;4.05;;;;;;;17.74;39.16;155785.87;1713014;82;21319;-64
2021/01/27 12:16:52;;;;;;;10.05;4.85;;;;;;;17.80;39.00;155803.02;1710979;84;21800;-64
2021/01/27 12:19:25;;;;;;;9.23;4.47;;;;;;;17.85;39.32;155816.19;1730316;82;21180;-64
2021/01/27 12:21:57;;;;;;;9.08;5.03;;;;;;;17.75;39.48;155789.81;1738044;82;21831;-64